Terminal Aerodrome Forecast
Issued by NWS Grand Forks, ND

Home | Current Version | Previous Version | Graphics & Text | Print | Product List | Glossary On
Versions: 1 2 3 4 5 6 7 8 9 10 11 12 13
295
FTUS43 KFGF 251720
TAFFAR
TAF
KFAR 251720Z 2518/2618 28008KT P6SM BKN035
      TEMPO 2519/2522 BKN025
     FM252200 32007KT P6SM BKN025
     FM260400 36005KT P6SM BKN035
     FM261600 33008KT P6SM SCT070=

USA.gov is the U.S. government's official web portal to all federal, state and local government web resources and services.